Time;durP1;ratioP1;P1;durP2;ratioP2;P2;SDS_P1;SDS_P2;PMS_P1;PMS_P2;Temp;Humidity;BMP_temperature;BMP_pressure;BME280_temperature;BME280_humidity;BME280_pressure;Samples;Min_cycle;Max_cycle;Signal;HPM_P1;HPM_P2
2022/05/13 00:00:29;;;;;;;;;;;;;;;20.93;63.44;99325.00;2093169;28;19932;-50
2022/05/13 00:01:30;;;;;;;;;;;;;;;20.93;63.38;99325.81;2098459;28;20332;-46
2022/05/13 00:02:32;;;;;;;;;;;;;;;20.93;63.71;99327.69;2098422;28;19932;-46
2022/05/13 00:03:34;;;;;;;;;;;;;;;20.91;63.38;99327.88;2097001;28;19934;-49
2022/05/13 00:04:34;;;;;;;;;;;;;;;20.94;63.64;99321.25;2098191;28;19935;-49
2022/05/13 00:05:36;;;;;;;;;;;;;;;20.94;63.33;99330.16;2099684;28;20026;-50
2022/05/13 00:06:37;;;;;;;;;;;;;;;20.93;63.31;99325.81;2098260;28;19924;-48
2022/05/13 00:07:38;;;;;;;;;;;;;;;20.94;63.33;99332.03;2094609;28;21037;-49
2022/05/13 00:08:39;;;;;;;;;;;;;;;20.93;63.53;99325.00;2097156;28;19931;-49
2022/05/13 00:10:00;;;;;;;;;;;;;;;20.93;63.46;99320.44;2099244;28;20146;-46
2022/05/13 00:11:03;;;;;;;;;;;;;;;20.91;63.43;99319.78;2099055;28;19959;-48
2022/05/13 00:12:05;;;;;;;;;;;;;;;20.91;63.25;99318.97;2096281;28;20305;-46
2022/05/13 00:13:05;;;;;;;;;;;;;;;20.90;63.55;99317.31;2097416;28;19928;-48
2022/05/13 00:14:08;;;;;;;;;;;;;;;20.90;63.54;99314.63;2097603;28;19931;-48
2022/05/13 00:15:11;;;;;;;;;;;;;;;20.91;63.35;99322.47;2099838;28;19996;-46
2022/05/13 00:16:12;;;;;;;;;;;;;;;20.90;63.21;99315.44;2100086;28;19935;-49
2022/05/13 00:17:14;;;;;;;;;;;;;;;20.91;63.26;99316.25;2100573;28;19936;-47
2022/05/13 00:18:18;;;;;;;;;;;;;;;20.91;63.59;99321.66;2101731;28;19928;-48
2022/05/13 00:19:19;;;;;;;;;;;;;;;20.90;63.35;99323.53;2098798;28;19978;-48
2022/05/13 00:20:20;;;;;;;;;;;;;;;20.89;63.61;99316.44;2101424;28;19950;-48
2022/05/13 00:21:23;;;;;;;;;;;;;;;20.90;63.44;99311.91;2099119;28;21044;-49
2022/05/13 00:22:23;;;;;;;;;;;;;;;20.90;63.30;99314.63;2099103;28;19935;-48
2022/05/13 00:23:25;;;;;;;;;;;;;;;20.89;63.52;99315.63;2101416;28;19935;-47
2022/05/13 00:24:25;;;;;;;;;;;;;;;20.89;63.26;99310.22;2101912;28;19935;-47
2022/05/13 00:25:28;;;;;;;;;;;;;;;20.88;63.45;99309.41;2099451;28;19938;-48
2022/05/13 00:26:29;;;;;;;;;;;;;;;20.89;63.36;99307.53;2101137;28;19943;-47
2022/05/13 00:27:30;;;;;;;;;;;;;;;20.88;63.53;99311.28;2097912;28;19971;-48
2022/05/13 00:28:32;;;;;;;;;;;;;;;20.88;63.32;99313.97;2098917;28;19932;-49
2022/05/13 00:29:34;;;;;;;;;;;;;;;20.88;63.29;99312.09;2094885;28;19928;-48
2022/05/13 00:30:36;;;;;;;;;;;;;;;20.87;63.58;99309.63;2100817;28;20425;-48
2022/05/13 00:31:38;;;;;;;;;;;;;;;20.87;63.25;99309.63;2100401;28;19924;-48
2022/05/13 00:32:39;;;;;;;;;;;;;;;20.86;63.42;99311.47;2101459;28;20026;-48
2022/05/13 00:33:42;;;;;;;;;;;;;;;20.88;63.31;99309.41;2099318;28;19997;-48
2022/05/13 00:34:43;;;;;;;;;;;;;;;20.89;63.52;99307.53;2101549;28;20294;-47
2022/05/13 00:35:44;;;;;;;;;;;;;;;20.89;63.44;99304.84;2100871;28;19928;-47
2022/05/13 00:36:47;;;;;;;;;;;;;;;20.87;63.54;99299.66;2099479;28;19951;-49
2022/05/13 00:37:48;;;;;;;;;;;;;;;20.86;63.32;99303.38;2096936;28;20547;-48
2022/05/13 00:38:49;;;;;;;;;;;;;;;20.88;63.55;99309.41;2099337;28;19936;-48
2022/05/13 00:39:50;;;;;;;;;;;;;;;20.86;63.51;99303.38;2096655;28;19927;-48
2022/05/13 00:40:51;;;;;;;;;;;;;;;20.85;63.60;99301.72;2099455;28;19924;-48
2022/05/13 00:41:53;;;;;;;;;;;;;;;20.85;63.49;99298.19;2098083;28;20061;-48
2022/05/13 00:42:57;;;;;;;;;;;;;;;20.87;63.39;99309.63;2097944;28;20007;-47
2022/05/13 00:43:59;;;;;;;;;;;;;;;20.88;63.30;99305.88;2095317;28;20024;-50
2022/05/13 00:44:59;;;;;;;;;;;;;;;20.88;63.28;99300.50;2093807;28;19928;-47
2022/05/13 00:46:03;;;;;;;;;;;;;;;20.87;63.10;99301.53;2096986;28;19928;-47
2022/05/13 00:47:04;;;;;;;;;;;;;;;20.88;63.39;99300.50;2099401;28;19990;-48
2022/05/13 00:48:07;;;;;;;;;;;;;;;20.87;63.31;99299.66;2100602;28;21054;-50
2022/05/13 00:49:11;;;;;;;;;;;;;;;20.87;63.37;99296.16;2097251;28;19928;-47
2022/05/13 00:50:14;;;;;;;;;;;;;;;20.86;63.24;99295.28;2100727;28;20437;-48
2022/05/13 00:51:17;;;;;;;;;;;;;;;20.87;63.02;99299.66;2097737;28;19928;-47
2022/05/13 00:52:20;;;;;;;;;;;;;;;20.87;63.40;99293.44;2095479;28;20515;-48
2022/05/13 00:53:20;;;;;;;;;;;;;;;20.86;63.05;99299.84;2096659;28;20043;-48
2022/05/13 00:54:22;;;;;;;;;;;;;;;20.87;63.06;99296.16;2091622;28;20663;-51
2022/05/13 00:55:25;;;;;;;;;;;;;;;20.87;63.04;99291.56;2084234;28;19981;-47
2022/05/13 00:56:26;;;;;;;;;;;;;;;20.85;63.13;99287.41;2096546;28;20294;-48
2022/05/13 00:57:27;;;;;;;;;;;;;;;20.84;63.07;99285.75;2095140;28;19940;-46
2022/05/13 00:58:29;;;;;;;;;;;;;;;20.86;63.18;99300.69;2095756;28;20534;-48
2022/05/13 00:59:33;;;;;;;;;;;;;;;20.86;63.21;99297.16;2097140;28;19932;-48
2022/05/13 01:00:35;;;;;;;;;;;;;;;20.88;62.87;99300.50;2101581;28;20028;-50
2022/05/13 01:01:37;;;;;;;;;;;;;;;20.89;63.02;99302.16;2090843;28;20038;-47
2022/05/13 01:02:37;;;;;;;;;;;;;;;20.87;63.11;99293.44;2098050;27;19936;-48
2022/05/13 01:03:40;;;;;;;;;;;;;;;20.86;63.29;99302.56;2098921;28;19932;-48
2022/05/13 01:04:42;;;;;;;;;;;;;;;20.85;63.21;99288.25;2097082;28;20389;-48
2022/05/13 01:05:48;;;;;;;;;;;;;;;20.86;62.89;99291.75;2098025;28;19955;-47
2022/05/13 01:06:50;;;;;;;;;;;;;;;20.84;62.87;99288.44;2099819;28;19928;-47
2022/05/13 01:07:51;;;;;;;;;;;;;;;20.84;63.13;99292.00;2095421;28;19938;-47
2022/05/13 01:08:52;;;;;;;;;;;;;;;20.86;63.10;99297.16;2098462;28;19932;-48
2022/05/13 01:09:56;;;;;;;;;;;;;;;20.86;63.07;99291.75;2097811;28;19924;-47
2022/05/13 01:10:57;;;;;;;;;;;;;;;20.86;63.14;99291.75;2095426;28;19960;-48
2022/05/13 01:11:59;;;;;;;;;;;;;;;20.85;62.92;99290.13;2092492;28;22010;-46
2022/05/13 01:13:06;;;;;;;;;;;;;;;20.86;63.16;99289.06;2097114;28;20023;-46
2022/05/13 01:14:09;;;;;;;;;;;;;;;20.86;62.93;99292.59;2095249;28;20461;-46
2022/05/13 01:15:11;;;;;;;;;;;;;;;20.86;62.89;99294.47;2097674;28;19955;-47
2022/05/13 01:16:12;;;;;;;;;;;;;;;20.85;62.97;99285.56;2096938;28;20016;-48
2022/05/13 01:18:37;;;;;;;;;;;;;;;20.81;63.23;99289.69;2098656;28;20015;-48
2022/05/13 01:19:37;;;;;;;;;;;;;;;20.81;63.00;99294.22;2096748;28;19962;-50
2022/05/13 01:20:46;;;;;;;;;;;;;;;20.81;62.94;99288.84;2099949;28;20325;-47
2022/05/13 01:21:49;;;;;;;;;;;;;;;20.82;63.21;99288.66;2097400;28;20015;-48
2022/05/13 01:22:51;;;;;;;;;;;;;;;20.82;63.11;99291.34;2099659;28;19939;-49
2022/05/13 01:23:53;;;;;;;;;;;;;;;20.83;62.99;99294.88;2097447;28;19977;-48
2022/05/13 01:24:54;;;;;;;;;;;;;;;20.82;63.16;99298.63;2098160;28;19928;-47
2022/05/13 01:25:57;;;;;;;;;;;;;;;20.83;62.85;99293.00;2093407;28;19928;-49
2022/05/13 01:26:58;;;;;;;;;;;;;;;20.82;63.03;99295.91;2098763;28;20665;-49
2022/05/13 01:28:06;;;;;;;;;;;;;;;20.81;62.81;99294.22;2096341;28;19985;-49
2022/05/13 01:29:08;;;;;;;;;;;;;;;20.82;63.01;99290.53;2092044;28;19924;-48
2022/05/13 01:30:09;;;;;;;;;;;;;;;20.82;62.85;99290.53;2094229;28;20965;-48
2022/05/13 01:31:13;;;;;;;;;;;;;;;20.81;62.95;99297.78;2097219;28;19924;-46
2022/05/13 01:32:13;;;;;;;;;;;;;;;20.81;62.79;99291.53;2098951;28;20322;-48
2022/05/13 01:33:16;;;;;;;;;;;;;;;20.81;62.78;99288.84;2098807;28;20051;-48
2022/05/13 01:34:16;;;;;;;;;;;;;;;20.82;63.01;99290.53;2099861;28;19930;-47
2022/05/13 01:35:18;;;;;;;;;;;;;;;20.80;63.01;99292.59;2099882;28;19986;-47
2022/05/13 01:36:19;;;;;;;;;;;;;;;20.77;62.88;99293.81;2087745;28;19935;-46
2022/05/13 01:37:22;;;;;;;;;;;;;;;20.79;63.04;99299.84;2095945;28;19967;-45
2022/05/13 01:38:23;;;;;;;;;;;;;;;20.77;62.89;99293.81;2097879;28;20469;-48
2022/05/13 01:39:25;;;;;;;;;;;;;;;20.74;63.30;99292.34;2096544;28;20001;-46
2022/05/13 01:40:25;;;;;;;;;;;;;;;20.77;62.84;99287.59;2098251;28;19928;-48
2022/05/13 01:41:28;;;;;;;;;;;;;;;20.79;62.79;99290.94;2099768;28;19935;-47
2022/05/13 01:42:29;;;;;;;;;;;;;;;20.78;62.86;99295.47;2091523;28;20507;-47
2022/05/13 01:43:30;;;;;;;;;;;;;;;20.78;63.14;99291.94;2095824;28;19924;-48
2022/05/13 01:44:31;;;;;;;;;;;;;;;20.77;63.10;99295.69;2097884;28;20403;-46
2022/05/13 01:45:32;;;;;;;;;;;;;;;20.78;63.13;99289.25;2098567;28;19924;-46
2022/05/13 01:46:34;;;;;;;;;;;;;;;20.81;62.89;99283.44;2099451;28;19935;-47
2022/05/13 01:47:34;;;;;;;;;;;;;;;20.78;62.78;99289.25;2098708;28;19935;-47
2022/05/13 01:48:36;;;;;;;;;;;;;;;20.78;63.06;99283.84;2098906;28;19950;-46
2022/05/13 01:49:37;;;;;;;;;;;;;;;20.78;62.93;99283.84;2096883;28;20010;-46
2022/05/13 01:50:39;;;;;;;;;;;;;;;20.78;62.95;99281.97;2098763;28;20037;-48
2022/05/13 01:51:40;;;;;;;;;;;;;;;20.77;62.74;99284.91;2096614;28;19924;-49
2022/05/13 01:52:43;;;;;;;;;;;;;;;20.78;62.74;99275.78;2095961;28;20059;-49
2022/05/13 01:53:43;;;;;;;;;;;;;;;20.75;63.20;99280.56;2092438;28;20360;-47
2022/05/13 01:54:45;;;;;;;;;;;;;;;20.76;63.00;99278.69;2099621;28;19925;-46
2022/05/13 01:55:45;;;;;;;;;;;;;;;20.74;62.74;99281.56;2094155;28;19963;-45
2022/05/13 01:56:47;;;;;;;;;;;;;;;20.74;63.09;99283.44;2096209;28;20019;-47
2022/05/13 01:57:48;;;;;;;;;;;;;;;20.74;62.95;99280.75;2097334;28;22082;-48
2022/05/13 01:58:49;;;;;;;;;;;;;;;20.74;62.71;99278.88;2098073;28;19931;-51
2022/05/13 01:59:50;;;;;;;;;;;;;;;20.74;62.90;99276.19;2100910;28;19939;-51
2022/05/13 02:00:53;;;;;;;;;;;;;;;20.75;62.87;99277.84;2100351;28;19935;-52
2022/05/13 02:01:53;;;;;;;;;;;;;;;20.75;62.83;99283.25;2090049;28;19924;-52
2022/05/13 02:04:14;;;;;;;;;;;;;;;20.78;62.87;99281.16;2100945;28;19924;-48
2022/05/13 02:05:15;;;;;;;;;;;;;;;20.77;63.02;99279.50;2096781;28;20469;-53
2022/05/13 02:06:17;;;;;;;;;;;;;;;20.77;62.94;99276.81;2099796;28;19981;-52
2022/05/13 02:07:18;;;;;;;;;;;;;;;20.73;62.69;99277.22;2103026;28;20038;-52
2022/05/13 02:08:21;;;;;;;;;;;;;;;20.74;63.02;99278.03;2094931;28;19932;-49
2022/05/13 02:09:23;;;;;;;;;;;;;;;20.74;62.71;99278.03;2099380;28;19931;-52
2022/05/13 02:10:23;;;;;;;;;;;;;;;20.74;63.11;99275.34;2098677;28;19973;-49
2022/05/13 02:11:26;;;;;;;;;;;;;;;20.75;62.74;99277.84;2099602;28;19935;-53
2022/05/13 02:12:26;;;;;;;;;;;;;;;20.73;62.71;99271.84;2097641;28;19932;-50
2022/05/13 02:13:28;;;;;;;;;;;;;;;20.73;62.78;99282.59;2097794;28;19932;-48
2022/05/13 02:14:30;;;;;;;;;;;;;;;20.73;62.86;99271.00;2098988;28;19932;-50
2022/05/13 02:15:31;;;;;;;;;;;;;;;20.73;62.64;99273.69;2098227;28;19924;-54
2022/05/13 02:16:32;;;;;;;;;;;;;;;20.73;62.94;99271.84;2100450;28;19924;-50
2022/05/13 02:17:33;;;;;;;;;;;;;;;20.71;62.69;99275.75;2100609;28;19928;-50
2022/05/13 02:18:35;;;;;;;;;;;;;;;20.72;62.75;99272.84;2095426;28;19924;-45
2022/05/13 02:19:35;;;;;;;;;;;;;;;20.73;62.61;99265.63;2098910;28;20019;-49
2022/05/13 02:20:37;;;;;;;;;;;;;;;20.72;62.96;99269.31;2098730;28;20406;-51
2022/05/13 02:21:39;;;;;;;;;;;;;;;20.70;63.01;99268.72;2100644;28;19924;-50
2022/05/13 02:22:39;;;;;;;;;;;;;;;20.70;62.79;99266.03;2101263;28;19990;-46
2022/05/13 02:23:42;;;;;;;;;;;;;;;20.69;62.92;99275.13;2103151;28;20479;-48
2022/05/13 02:24:43;;;;;;;;;;;;;;;20.68;62.94;99268.91;2100841;28;20493;-51
2022/05/13 02:25:44;;;;;;;;;;;;;;;20.69;62.82;99265.16;2097749;28;19935;-50
2022/05/13 02:26:45;;;;;;;;;;;;;;;20.68;62.96;99268.91;2097899;28;19924;-49
2022/05/13 02:27:46;;;;;;;;;;;;;;;20.70;62.67;99272.25;2095525;28;20124;-51
2022/05/13 02:28:47;;;;;;;;;;;;;;;20.68;63.07;99258.13;2098282;28;20626;-51
2022/05/13 02:29:49;;;;;;;;;;;;;;;20.68;62.60;99263.50;2101152;28;19939;-54
2022/05/13 02:30:50;;;;;;;;;;;;;;;20.69;62.80;99265.16;2101214;28;19932;-51
2022/05/13 02:31:51;;;;;;;;;;;;;;;20.69;62.74;99259.78;2096026;28;20410;-49
2022/05/13 02:32:52;;;;;;;;;;;;;;;20.69;62.84;99258.94;2098172;28;19935;-52
2022/05/13 02:33:53;;;;;;;;;;;;;;;20.68;62.73;99250.03;2102349;28;19928;-46
2022/05/13 02:34:54;;;;;;;;;;;;;;;20.65;63.09;99258.53;2097320;28;20081;-53
2022/05/13 02:35:56;;;;;;;;;;;;;;;20.64;63.18;99256.84;2099614;28;20575;-47
2022/05/13 02:36:56;;;;;;;;;;;;;;;20.68;62.91;99255.44;2096343;28;19928;-52
2022/05/13 02:37:58;;;;;;;;;;;;;;;20.66;62.83;99254.78;2101316;28;19928;-53
2022/05/13 02:39:00;;;;;;;;;;;;;;;20.64;63.02;99246.06;2098289;28;19932;-46
2022/05/13 02:40:01;;;;;;;;;;;;;;;20.65;62.71;99258.53;2100549;28;19924;-50
2022/05/13 02:41:11;;;;;;;;;;;;;;;20.67;62.62;99259.16;2098302;28;20506;-53
2022/05/13 02:42:14;;;;;;;;;;;;;;;20.69;62.55;99265.16;2096132;28;20735;-49
2022/05/13 02:43:15;;;;;;;;;;;;;;;20.68;62.94;99257.28;2100225;28;19939;-52
2022/05/13 02:44:16;;;;;;;;;;;;;;;20.66;62.71;99253.97;2093294;28;19930;-52
2022/05/13 02:45:17;;;;;;;;;;;;;;;20.67;62.54;99252.91;2099843;28;20001;-52
2022/05/13 02:46:19;;;;;;;;;;;;;;;20.66;62.79;99254.78;2096474;28;20962;-52
2022/05/13 02:47:20;;;;;;;;;;;;;;;20.65;62.59;99247.75;2100839;28;19935;-51
2022/05/13 02:48:21;;;;;;;;;;;;;;;20.66;62.72;99252.09;2100010;28;19932;-48
2022/05/13 02:49:22;;;;;;;;;;;;;;;20.66;62.75;99256.66;2098236;28;19932;-51
2022/05/13 02:50:25;;;;;;;;;;;;;;;20.66;62.80;99260.19;2101782;28;20389;-47
2022/05/13 02:51:27;;;;;;;;;;;;;;;20.67;62.82;99261.84;2099925;28;19928;-48
2022/05/13 02:52:28;;;;;;;;;;;;;;;20.65;62.89;99255.84;2100214;28;20425;-50
2022/05/13 02:53:29;;;;;;;;;;;;;;;20.66;62.60;99254.78;2101856;28;19969;-46
2022/05/13 02:54:31;;;;;;;;;;;;;;;20.66;62.79;99253.97;2103039;28;19928;-47
2022/05/13 02:55:33;;;;;;;;;;;;;;;20.63;62.70;99249.81;2096852;28;19925;-47
2022/05/13 02:56:35;;;;;;;;;;;;;;;20.62;62.81;99253.53;2099998;28;20516;-51
2022/05/13 02:57:35;;;;;;;;;;;;;;;20.63;62.66;99255.19;2098922;28;19928;-51
2022/05/13 02:58:37;;;;;;;;;;;;;;;20.64;62.73;99251.44;2102288;28;20427;-50
2022/05/13 02:59:39;;;;;;;;;;;;;;;20.63;62.61;99252.50;2099045;28;20011;-55
2022/05/13 03:00:40;;;;;;;;;;;;;;;20.62;62.90;99253.53;2100708;28;19940;-50
2022/05/13 03:01:41;;;;;;;;;;;;;;;20.64;62.93;99250.63;2101524;28;19967;-50
2022/05/13 03:02:43;;;;;;;;;;;;;;;20.63;62.85;99252.50;2098784;28;20306;-50
2022/05/13 03:03:45;;;;;;;;;;;;;;;20.62;62.85;99250.03;2102758;28;19928;-54
2022/05/13 03:04:46;;;;;;;;;;;;;;;20.62;62.64;99248.16;2102175;28;20902;-51
2022/05/13 03:05:47;;;;;;;;;;;;;;;20.64;62.68;99256.03;2098819;28;19935;-54
2022/05/13 03:06:48;;;;;;;;;;;;;;;20.61;62.90;99251.03;2100812;28;20401;-51
2022/05/13 03:07:50;;;;;;;;;;;;;;;20.63;62.61;99257.88;2101871;28;19928;-46
2022/05/13 03:08:51;;;;;;;;;;;;;;;20.64;62.82;99253.31;2099277;28;19947;-54
2022/05/13 03:09:53;;;;;;;;;;;;;;;20.62;63.01;99250.03;2099898;28;20011;-51
2022/05/13 03:10:55;;;;;;;;;;;;;;;20.62;62.80;99255.41;2095575;28;19940;-50
2022/05/13 03:11:55;;;;;;;;;;;;;;;20.62;62.95;99256.25;2092772;28;19943;-53
2022/05/13 03:12:57;;;;;;;;;;;;;;;20.61;62.65;99259.94;2098192;28;19932;-54
2022/05/13 03:13:57;;;;;;;;;;;;;;;20.62;62.73;99250.84;2101408;28;19967;-45
2022/05/13 03:14:59;;;;;;;;;;;;;;;20.60;62.80;99247.50;2099405;28;19935;-48
2022/05/13 03:16:04;;;;;;;;;;;;;;;20.60;62.83;99247.50;2100273;28;19935;-50
2022/05/13 03:17:05;;;;;;;;;;;;;;;20.59;62.88;99253.94;2100551;28;19928;-52
2022/05/13 03:18:07;;;;;;;;;;;;;;;20.61;62.85;99251.88;2092271;28;19928;-53
2022/05/13 03:19:07;;;;;;;;;;;;;;;20.63;62.60;99254.38;2099624;28;19928;-50
2022/05/13 03:20:13;;;;;;;;;;;;;;;20.63;62.75;99252.50;2098808;28;20026;-53
2022/05/13 03:21:13;;;;;;;;;;;;;;;20.62;62.74;99252.72;2099386;28;19969;-49
2022/05/13 03:22:16;;;;;;;;;;;;;;;20.63;62.62;99248.97;2096803;28;19928;-48
2022/05/13 03:23:17;;;;;;;;;;;;;;;20.63;62.47;99246.28;2101440;28;20379;-51
2022/05/13 03:24:18;;;;;;;;;;;;;;;20.65;62.67;99250.44;2099623;28;19970;-52
2022/05/13 03:25:21;;;;;;;;;;;;;;;20.64;62.63;99251.44;2096746;28;19946;-49
2022/05/13 03:26:23;;;;;;;;;;;;;;;20.64;62.83;99256.03;2097974;28;19939;-52
2022/05/13 03:27:23;;;;;;;;;;;;;;;20.60;62.68;99252.91;2098168;28;19935;-52
2022/05/13 03:28:25;;;;;;;;;;;;;;;20.60;62.91;99255.59;2102876;28;19958;-50
2022/05/13 03:29:26;;;;;;;;;;;;;;;20.59;62.65;99262.03;2098538;28;20011;-52
2022/05/13 03:30:27;;;;;;;;;;;;;;;20.58;62.68;99252.25;2101416;28;19936;-50
2022/05/13 03:31:29;;;;;;;;;;;;;;;20.57;62.71;99256.00;2099297;28;20030;-48
2022/05/13 03:32:29;;;;;;;;;;;;;;;20.55;62.98;99252.66;2100661;28;20628;-54
2022/05/13 03:33:31;;;;;;;;;;;;;;;20.57;62.89;99256.00;2102202;28;19973;-50
2022/05/13 03:34:32;;;;;;;;;;;;;;;20.55;62.94;99247.28;2101503;28;20481;-49
2022/05/13 03:35:34;;;;;;;;;;;;;;;20.56;63.04;99251.66;2098199;28;19928;-51
2022/05/13 03:36:35;;;;;;;;;;;;;;;20.58;62.59;99254.97;2100860;28;19924;-51
2022/05/13 03:37:36;;;;;;;;;;;;;;;20.57;62.96;99252.50;2099984;28;19932;-52
2022/05/13 03:38:37;;;;;;;;;;;;;;;20.57;62.88;99255.19;2097731;28;19974;-47
2022/05/13 03:39:38;;;;;;;;;;;;;;;20.59;62.61;99258.47;2097061;28;20027;-53
2022/05/13 03:40:41;;;;;;;;;;;;;;;20.57;62.72;99253.31;2097430;28;19951;-55
2022/05/13 03:41:42;;;;;;;;;;;;;;;20.59;62.60;99253.09;2100407;28;19970;-47
2022/05/13 03:42:43;;;;;;;;;;;;;;;20.58;62.69;99252.25;2101159;28;20393;-52
2022/05/13 03:43:45;;;;;;;;;;;;;;;20.57;62.81;99250.63;2098825;28;20302;-54
2022/05/13 03:44:45;;;;;;;;;;;;;;;20.57;62.54;99256.00;2097189;28;20580;-48
2022/05/13 03:45:47;;;;;;;;;;;;;;;20.57;62.82;99255.19;2099812;28;20043;-54
2022/05/13 03:46:48;;;;;;;;;;;;;;;20.54;62.72;99251.03;2097457;28;20488;-52
2022/05/13 03:47:49;;;;;;;;;;;;;;;20.54;62.61;99251.03;2100971;28;19985;-45
2022/05/13 03:48:50;;;;;;;;;;;;;;;20.55;62.85;99244.59;2099184;28;19924;-53
2022/05/13 03:49:51;;;;;;;;;;;;;;;20.54;62.67;99245.63;2101487;28;20429;-47
2022/05/13 03:50:52;;;;;;;;;;;;;;;20.54;62.53;99245.63;2100554;28;19962;-49
2022/05/13 03:51:54;;;;;;;;;;;;;;;20.52;62.54;99251.19;2098107;28;20442;-53
2022/05/13 03:52:54;;;;;;;;;;;;;;;20.54;62.63;99253.72;2098144;28;20447;-48
2022/05/13 03:53:56;;;;;;;;;;;;;;;20.55;62.49;99244.59;2100312;28;20001;-51
2022/05/13 03:54:57;;;;;;;;;;;;;;;20.55;62.67;99246.47;2096839;28;19936;-53
2022/05/13 03:56:00;;;;;;;;;;;;;;;20.51;62.77;99252.22;2100668;28;19960;-53
2022/05/13 03:57:00;;;;;;;;;;;;;;;20.54;62.56;99259.09;2099441;28;19924;-49
2022/05/13 03:58:02;;;;;;;;;;;;;;;20.51;62.93;99252.22;2097748;28;20582;-48
2022/05/13 03:59:03;;;;;;;;;;;;;;;20.52;62.73;99247.66;2100240;28;19977;-51
2022/05/13 04:00:06;;;;;;;;;;;;;;;20.53;62.66;99246.66;2101412;28;19981;-56
2022/05/13 04:01:07;;;;;;;;;;;;;;;20.53;62.73;99252.03;2097480;28;19928;-49
2022/05/13 04:02:08;;;;;;;;;;;;;;;20.53;62.70;99250.19;2096904;28;20420;-51
2022/05/13 04:03:28;;;;;;;;;;;;;;;20.51;62.81;99254.09;2098607;28;19935;-51
2022/05/13 04:04:29;;;;;;;;;;;;;;;20.51;62.95;99251.41;2099423;28;20861;-48
2022/05/13 04:09:28;;;;;;;;;;;;;;;20.50;62.77;99255.97;2097480;28;19936;-48
2022/05/13 04:10:28;;;;;;;;;;;;;;;20.52;62.65;99253.03;2095289;28;19924;-51
2022/05/13 04:11:33;;;;;;;;;;;;;;;20.51;62.39;99260.31;2099960;28;20821;-49
2022/05/13 04:16:30;;;;;;;;;;;;;;;20.50;62.48;99261.34;2098778;28;19928;-52
2022/05/13 04:17:32;;;;;;;;;;;;;;;20.47;62.48;99258.19;2098603;28;19928;-53
2022/05/13 04:18:34;;;;;;;;;;;;;;;20.47;62.60;99255.50;2098327;28;20541;-50
2022/05/13 04:19:35;;;;;;;;;;;;;;;20.48;62.47;99262.56;2097939;28;19928;-49
2022/05/13 04:20:36;;;;;;;;;;;;;;;20.48;62.39;99259.88;2098123;28;20054;-49
2022/05/13 04:21:38;;;;;;;;;;;;;;;20.48;62.38;99266.09;2098379;28;19932;-56
2022/05/13 04:22:40;;;;;;;;;;;;;;;20.48;62.38;99267.97;2095703;28;20034;-49
2022/05/13 04:23:43;;;;;;;;;;;;;;;20.47;62.48;99263.59;2096528;28;20019;-53
2022/05/13 04:24:44;;;;;;;;;;;;;;;20.47;62.35;99267.09;2094552;28;19959;-54
2022/05/13 04:25:45;;;;;;;;;;;;;;;20.46;62.41;99264.63;2097038;28;19924;-47
2022/05/13 04:26:48;;;;;;;;;;;;;;;20.46;62.67;99260.06;2094970;28;19950;-49
2022/05/13 04:27:49;;;;;;;;;;;;;;;20.46;62.37;99262.75;2099628;28;20417;-51
2022/05/13 04:28:51;;;;;;;;;;;;;;;20.44;62.48;99264.81;2101176;28;19924;-52
2022/05/13 04:29:52;;;;;;;;;;;;;;;20.45;62.75;99263.81;2098289;28;19928;-51
2022/05/13 04:30:54;;;;;;;;;;;;;;;20.45;62.74;99262.97;2099251;28;20507;-48
2022/05/13 04:31:55;;;;;;;;;;;;;;;20.46;62.47;99270.03;2096716;28;19930;-47
2022/05/13 04:32:56;;;;;;;;;;;;;;;20.45;62.64;99263.81;2094756;28;19928;-54
2022/05/13 04:33:58;;;;;;;;;;;;;;;20.45;62.82;99265.69;2096512;28;19932;-52
2022/05/13 04:34:58;;;;;;;;;;;;;;;20.44;62.43;99267.50;2096260;28;20403;-47
2022/05/13 04:36:00;;;;;;;;;;;;;;;20.43;62.73;99273.94;2099365;28;19928;-49
2022/05/13 04:37:02;;;;;;;;;;;;;;;20.44;62.58;99272.06;2096217;28;19932;-51
2022/05/13 04:38:03;;;;;;;;;;;;;;;20.42;62.58;99263.34;2096227;28;19935;-52
2022/05/13 04:39:05;;;;;;;;;;;;;;;20.43;62.43;99270.44;2096754;28;20143;-52
2022/05/13 04:40:06;;;;;;;;;;;;;;;20.44;62.73;99278.28;2100277;28;19942;-50
2022/05/13 04:43:48;;;;;;;;;;;;;;;20.44;62.82;99266.69;2101376;28;19927;-53
2022/05/13 04:44:48;;;;;;;;;;;;;;;20.44;62.72;99272.06;2099506;28;19978;-49
2022/05/13 04:45:50;;;;;;;;;;;;;;;20.43;62.78;99268.56;2099117;28;19935;-54
2022/05/13 04:46:50;;;;;;;;;;;;;;;20.43;62.40;99270.44;2100806;28;20382;-48
2022/05/13 04:49:11;;;;;;;;;;;;;;;20.41;62.49;99272.47;2101063;28;19924;-46
2022/05/13 04:50:12;;;;;;;;;;;;;;;20.40;62.45;99263.56;2098444;28;19932;-51
2022/05/13 04:51:14;;;;;;;;;;;;;;;20.40;62.85;99265.44;2097930;28;19933;-46
2022/05/13 04:52:14;;;;;;;;;;;;;;;20.41;62.63;99269.78;2094292;28;19996;-50
2022/05/13 04:53:17;;;;;;;;;;;;;;;20.42;62.51;99269.59;2092552;28;20013;-50
2022/05/13 04:54:19;;;;;;;;;;;;;;;20.42;62.53;99266.91;2098171;28;19928;-53
2022/05/13 04:55:19;;;;;;;;;;;;;;;20.41;62.62;99270.63;2095187;28;19931;-55
2022/05/13 04:56:22;;;;;;;;;;;;;;;20.39;62.62;99269.16;2098612;28;19977;-51
2022/05/13 04:57:23;;;;;;;;;;;;;;;20.41;62.78;99275.19;2097831;28;19931;-48
2022/05/13 04:58:27;;;;;;;;;;;;;;;20.39;62.56;99269.97;2097456;28;19960;-55
2022/05/13 04:59:27;;;;;;;;;;;;;;;20.41;62.69;99277.88;2098163;28;20401;-46
2022/05/13 05:00:29;;;;;;;;;;;;;;;20.38;62.70;99271.00;2094200;28;20019;-54
2022/05/13 05:01:30;;;;;;;;;;;;;;;20.39;62.39;99272.66;2097497;28;19938;-49
2022/05/13 05:02:33;;;;;;;;;;;;;;;20.39;62.67;99275.34;2095686;28;19935;-52
2022/05/13 05:03:35;;;;;;;;;;;;;;;20.38;62.48;99275.56;2095012;28;19924;-45
2022/05/13 05:04:36;;;;;;;;;;;;;;;20.38;63.01;99270.19;2097194;28;20536;-55
2022/05/13 05:05:37;;;;;;;;;;;;;;;20.38;62.72;99272.88;2101235;28;19928;-48
2022/05/13 05:06:38;;;;;;;;;;;;;;;20.39;62.80;99272.66;2098422;28;19951;-54
2022/05/13 05:07:39;;;;;;;;;;;;;;;20.39;62.55;99275.34;2091227;28;19935;-52
2022/05/13 05:08:41;;;;;;;;;;;;;;;20.37;62.92;99272.06;2094439;28;19928;-49
2022/05/13 05:09:42;;;;;;;;;;;;;;;20.36;62.84;99285.72;2097225;28;20018;-56
2022/05/13 05:10:44;;;;;;;;;;;;;;;20.36;62.98;99266.84;2097147;28;19924;-49
2022/05/13 05:11:44;;;;;;;;;;;;;;;20.35;63.04;99274.13;2097002;28;19932;-51
2022/05/13 05:12:47;;;;;;;;;;;;;;;20.36;62.56;99275.75;2099963;28;19928;-51
2022/05/13 05:13:50;;;;;;;;;;;;;;;20.36;62.60;99270.38;2097440;28;20423;-49
2022/05/13 05:14:52;;;;;;;;;;;;;;;20.37;62.72;99269.38;2099921;28;19932;-54
2022/05/13 05:15:52;;;;;;;;;;;;;;;20.37;62.60;99276.63;2099215;28;19928;-48
2022/05/13 05:16:54;;;;;;;;;;;;;;;20.36;62.73;99277.63;2096849;28;20018;-52
2022/05/13 05:17:55;;;;;;;;;;;;;;;20.35;62.51;99274.13;2095675;28;19928;-52
2022/05/13 05:18:59;;;;;;;;;;;;;;;20.36;62.58;99274.94;2098029;28;19935;-50
2022/05/13 05:20:00;;;;;;;;;;;;;;;20.37;62.48;99282.00;2101060;28;20301;-52
2022/05/13 05:21:02;;;;;;;;;;;;;;;20.36;62.71;99283.03;2094590;28;20023;-49
2022/05/13 05:22:05;;;;;;;;;;;;;;;20.37;62.58;99284.69;2098119;28;19936;-49
2022/05/13 05:23:07;;;;;;;;;;;;;;;20.34;62.65;99283.22;2092216;28;20023;-49
2022/05/13 05:24:08;;;;;;;;;;;;;;;20.35;62.83;99284.06;2090326;28;19932;-52
2022/05/13 05:25:10;;;;;;;;;;;;;;;20.34;62.47;99282.38;2094505;28;19947;-52
2022/05/13 05:26:12;;;;;;;;;;;;;;;20.34;62.37;99283.22;2098293;28;19924;-49
2022/05/13 05:27:12;;;;;;;;;;;;;;;20.34;62.36;99288.63;2096797;28;20359;-50
2022/05/13 05:28:14;;;;;;;;;;;;;;;20.33;62.77;99281.56;2098870;28;19932;-52
2022/05/13 05:29:17;;;;;;;;;;;;;;;20.33;62.55;99291.50;2095161;28;19928;-48
2022/05/13 05:30:18;;;;;;;;;;;;;;;20.33;62.49;99286.94;2098500;28;20011;-52
2022/05/13 05:31:19;;;;;;;;;;;;;;;20.34;62.49;99287.75;2100499;28;19928;-51
2022/05/13 05:32:20;;;;;;;;;;;;;;;20.33;62.50;99286.94;2098655;28;19932;-54
2022/05/13 05:33:21;;;;;;;;;;;;;;;20.33;62.38;99286.13;2101434;28;20596;-50
2022/05/13 05:34:23;;;;;;;;;;;;;;;20.31;62.63;99287.16;2098917;28;19924;-53
2022/05/13 05:35:23;;;;;;;;;;;;;;;20.33;62.48;99291.50;2098085;28;19936;-46
2022/05/13 05:36:25;;;;;;;;;;;;;;;20.31;62.53;99289.84;2089868;28;19932;-50